createdAt,value
2024-02-11T00:02:18.766Z,1.60
2024-02-11T00:06:31.519Z,1.52
2024-02-11T00:10:43.986Z,1.35
2024-02-11T00:14:57.460Z,1.80
2024-02-11T00:19:10.156Z,1.85
2024-02-11T00:23:26.101Z,1.70
2024-02-11T00:27:50.497Z,1.70
2024-02-11T00:32:02.905Z,4.15
2024-02-11T00:36:17.566Z,3.53
2024-02-11T00:40:30.002Z,2.97
2024-02-11T00:44:43.535Z,2.40
2024-02-11T00:48:55.926Z,3.15
2024-02-11T00:53:08.369Z,3.28
2024-02-11T00:57:21.681Z,3.33
2024-02-11T01:01:34.076Z,2.97
2024-02-11T01:05:46.934Z,3.05
2024-02-11T01:09:59.627Z,1.92
2024-02-11T01:14:12.318Z,2.13
2024-02-11T01:18:24.734Z,2.30
2024-02-11T01:22:43.774Z,2.65
2024-02-11T01:26:58.315Z,2.30
2024-02-11T01:31:10.706Z,2.88
2024-02-11T01:35:23.221Z,2.60
2024-02-11T01:39:36.237Z,2.60
2024-02-11T01:43:48.690Z,2.10
2024-02-11T01:48:01.136Z,2.75
2024-02-11T01:52:14.950Z,2.72
2024-02-11T01:56:27.442Z,2.05
2024-02-11T02:00:39.949Z,2.50
2024-02-11T02:04:53.738Z,2.58
2024-02-11T02:09:06.232Z,2.30
2024-02-11T02:13:20.166Z,2.10
2024-02-11T02:17:32.593Z,2.38
2024-02-11T02:21:53.148Z,2.00
2024-02-11T02:26:10.196Z,2.05
2024-02-11T02:30:23.966Z,2.00
2024-02-11T02:34:36.355Z,1.70
2024-02-11T02:38:49.062Z,1.67
2024-02-11T02:43:08.507Z,1.60
2024-02-11T02:47:20.996Z,1.95
2024-02-11T02:51:33.555Z,1.80
2024-02-11T02:55:45.892Z,1.83
2024-02-11T02:59:59.482Z,1.67
2024-02-11T03:04:13.465Z,1.88
2024-02-11T03:08:27.276Z,2.10
2024-02-11T03:12:39.648Z,2.00
2024-02-11T03:16:52.044Z,2.35
2024-02-11T03:21:04.685Z,2.40
2024-02-11T03:25:17.224Z,2.65
2024-02-11T03:29:29.529Z,1.88
2024-02-11T03:33:42.044Z,2.72
2024-02-11T03:37:54.841Z,3.00
2024-02-11T03:42:07.198Z,2.28
2024-02-11T03:46:23.827Z,2.25
2024-02-11T03:50:36.166Z,3.00
2024-02-11T03:54:48.633Z,2.28
2024-02-11T03:59:01.450Z,2.70
2024-02-11T04:03:14.535Z,2.97
2024-02-11T04:07:27.324Z,3.40
2024-02-11T04:11:39.720Z,3.83
2024-02-11T04:15:57.791Z,3.63
2024-02-11T04:20:16.813Z,3.60
2024-02-11T04:24:29.938Z,3.70
2024-02-11T04:28:42.854Z,3.28
2024-02-11T04:32:55.588Z,3.35
2024-02-11T04:37:08.109Z,3.15
2024-02-11T04:41:20.664Z,3.78
2024-02-11T04:45:33.130Z,3.47
2024-02-11T04:49:45.915Z,3.55
2024-02-11T04:53:59.068Z,4.50
2024-02-11T04:58:17.566Z,4.35
2024-02-11T05:02:31.636Z,4.22
2024-02-11T05:06:44.826Z,4.57
2024-02-11T05:10:57.909Z,4.55
2024-02-11T05:15:10.533Z,3.58
2024-02-11T05:19:22.946Z,3.53
2024-02-11T05:23:35.249Z,4.35
2024-02-11T05:27:58.417Z,3.65
2024-02-11T05:32:13.164Z,4.07
2024-02-11T05:36:25.669Z,4.10
2024-02-11T05:40:47.143Z,3.70
2024-02-11T05:44:59.611Z,3.60
2024-02-11T05:49:13.254Z,3.55
2024-02-11T05:53:25.659Z,3.60
2024-02-11T05:57:40.424Z,3.30
2024-02-11T06:01:53.115Z,3.28
2024-02-11T06:06:08.309Z,3.33
2024-02-11T06:10:21.664Z,3.35
2024-02-11T06:14:35.330Z,3.25
2024-02-11T06:18:47.712Z,3.42
2024-02-11T06:23:00.112Z,2.83
2024-02-11T06:27:13.614Z,2.92
2024-02-11T06:31:26.481Z,3.13
2024-02-11T06:35:38.861Z,2.97
2024-02-11T06:39:53.017Z,2.92
2024-02-11T06:44:07.654Z,3.10
2024-02-11T06:48:20.686Z,3.70
2024-02-11T06:52:34.292Z,3.10
2024-02-11T06:56:48.845Z,3.45
2024-02-11T07:01:01.301Z,3.35
2024-02-11T07:05:13.754Z,3.50
2024-02-11T07:09:26.133Z,2.50
2024-02-11T07:13:42.536Z,3.88
2024-02-11T07:17:55.474Z,3.58
2024-02-11T07:22:07.960Z,3.80
2024-02-11T07:26:20.442Z,3.67
2024-02-11T07:30:32.760Z,4.47
2024-02-11T07:34:45.225Z,4.13
2024-02-11T07:38:57.770Z,4.97
2024-02-11T07:43:11.282Z,4.75
2024-02-11T07:47:26.553Z,4.95
2024-02-11T07:51:44.309Z,5.43
2024-02-11T07:55:56.692Z,4.78
2024-02-11T08:00:09.484Z,5.70
2024-02-11T08:04:22.054Z,5.53
2024-02-11T08:08:38.806Z,5.70
2024-02-11T08:12:53.946Z,5.95
2024-02-11T08:17:07.272Z,5.85
2024-02-11T08:21:20.968Z,4.85
2024-02-11T08:25:33.878Z,4.88
2024-02-11T08:29:49.047Z,6.18
2024-02-11T08:34:02.370Z,6.10
2024-02-11T08:38:15.484Z,6.57
2024-02-11T08:42:30.854Z,5.75
2024-02-11T08:46:43.262Z,6.97
2024-02-11T08:50:56.201Z,5.43
2024-02-11T08:55:09.241Z,5.07
2024-02-11T08:59:21.726Z,5.68
2024-02-11T09:03:34.163Z,5.80
2024-02-11T09:07:48.208Z,6.10
2024-02-11T09:12:01.116Z,5.47
2024-02-11T09:16:13.909Z,6.70
2024-02-11T09:20:26.436Z,6.75
2024-02-11T09:24:42.689Z,7.00
2024-02-11T09:28:55.834Z,6.95
2024-02-11T09:33:08.288Z,6.43
2024-02-11T09:37:20.656Z,6.88
2024-02-11T09:41:34.491Z,8.30
2024-02-11T09:45:49.011Z,7.85
2024-02-11T09:50:05.656Z,7.60
2024-02-11T09:54:20.024Z,7.22
2024-02-11T09:58:34.683Z,7.63
2024-02-11T10:02:50.471Z,7.88
2024-02-11T10:07:05.267Z,7.95
2024-02-11T10:11:20.354Z,7.63
2024-02-11T10:15:39.910Z,7.53
2024-02-11T10:19:52.938Z,8.00
2024-02-11T10:24:05.570Z,7.22
2024-02-11T10:28:19.134Z,8.25
2024-02-11T10:32:36.899Z,8.57
2024-02-11T10:36:55.125Z,9.20
2024-02-11T10:41:08.250Z,8.43
2024-02-11T10:45:20.764Z,7.85
2024-02-11T10:49:33.509Z,8.80
2024-02-11T10:53:50.065Z,10.50
2024-02-11T10:58:05.333Z,9.15
2024-02-11T11:02:18.128Z,9.43
2024-02-11T11:06:33.386Z,8.23
2024-02-11T11:10:45.792Z,8.55
2024-02-11T11:14:59.256Z,8.52
2024-02-11T11:19:16.822Z,8.27
2024-02-11T11:23:30.010Z,8.38
2024-02-11T11:27:42.397Z,8.27
2024-02-11T11:31:57.530Z,8.15
2024-02-11T11:36:10.212Z,8.20
2024-02-11T11:40:24.430Z,7.65
2024-02-11T11:44:36.772Z,8.20
2024-02-11T11:48:49.224Z,9.05
2024-02-11T11:53:02.721Z,8.13
2024-02-11T11:57:15.243Z,7.85
2024-02-11T12:01:27.584Z,7.13
2024-02-11T12:05:43.530Z,6.40
2024-02-11T12:09:55.920Z,7.00
2024-02-11T12:14:10.659Z,6.63
2024-02-11T12:18:24.526Z,7.55
2024-02-11T12:22:37.549Z,6.60
2024-02-11T12:26:50.156Z,7.25
2024-02-11T12:31:20.976Z,7.68
2024-02-11T12:35:37.583Z,7.20
2024-02-11T12:39:50.130Z,8.23
2024-02-11T12:44:06.580Z,8.45
2024-02-11T12:48:19.116Z,8.65
2024-02-11T12:52:35.499Z,7.72
2024-02-11T12:56:47.874Z,8.70
2024-02-11T13:01:01.254Z,9.00
2024-02-11T13:05:17.643Z,9.32
2024-02-11T13:09:33.421Z,8.93
2024-02-11T13:13:47.665Z,8.05
2024-02-11T13:18:00.313Z,7.45
2024-02-11T13:22:15.782Z,7.95
2024-02-11T13:26:28.637Z,9.63
2024-02-11T13:30:42.606Z,7.93
2024-02-11T13:34:55.144Z,11.13
2024-02-11T13:39:07.577Z,8.02
2024-02-11T13:43:20.774Z,10.55
2024-02-11T13:47:36.275Z,13.75
2024-02-11T13:51:49.994Z,8.95
2024-02-11T13:56:02.505Z,9.40
2024-02-11T14:00:17.329Z,18.20
2024-02-11T14:04:35.115Z,10.02
2024-02-11T14:08:47.777Z,13.32
2024-02-11T14:13:04.981Z,10.10
2024-02-11T14:17:17.507Z,10.45
2024-02-11T14:21:29.850Z,10.02
2024-02-11T14:25:43.646Z,13.80
2024-02-11T14:29:55.981Z,8.50
2024-02-11T14:34:10.018Z,9.75
2024-02-11T14:38:22.715Z,10.77
2024-02-11T14:42:34.982Z,8.00
2024-02-11T14:46:47.970Z,7.70
2024-02-11T14:51:00.964Z,8.48
2024-02-11T14:55:14.408Z,6.80
2024-02-11T14:59:30.015Z,4.95
2024-02-11T15:03:44.202Z,5.25
2024-02-11T15:07:57.252Z,5.15
2024-02-11T15:12:11.244Z,5.07
2024-02-11T15:16:23.863Z,4.70
2024-02-11T15:20:36.687Z,5.43
2024-02-11T15:24:50.283Z,5.43
2024-02-11T15:29:02.758Z,5.43
2024-02-11T15:33:15.582Z,4.50
2024-02-11T15:37:28.409Z,4.57
2024-02-11T15:41:42.750Z,4.57
2024-02-11T15:45:55.136Z,5.10
2024-02-11T15:50:11.004Z,5.10
2024-02-11T15:54:23.842Z,5.80
2024-02-11T15:58:36.625Z,5.80
2024-02-11T16:02:49.209Z,5.53
2024-02-11T16:07:04.082Z,5.88
2024-02-11T16:11:16.748Z,5.93
2024-02-11T16:15:30.906Z,6.97
2024-02-11T16:19:43.508Z,6.00
2024-02-11T16:23:55.945Z,6.85
2024-02-11T16:28:08.579Z,6.47
2024-02-11T16:32:24.414Z,6.55
2024-02-11T16:36:38.873Z,7.32
2024-02-11T16:40:51.337Z,7.85
2024-02-11T16:45:04.169Z,6.38
2024-02-11T16:49:16.639Z,7.13
2024-02-11T16:53:29.700Z,7.22
2024-02-11T16:57:42.284Z,7.15
2024-02-11T17:01:56.899Z,7.78
2024-02-11T17:06:16.063Z,8.05
2024-02-11T17:10:28.866Z,8.13
2024-02-11T17:14:44.604Z,8.48
2024-02-11T17:18:57.986Z,9.48
2024-02-11T17:23:11.354Z,9.35
2024-02-11T17:27:23.947Z,8.90
2024-02-11T17:31:43.649Z,8.40
2024-02-11T17:35:59.843Z,7.95
2024-02-11T17:40:12.983Z,7.90
2024-02-11T17:44:25.588Z,8.43
2024-02-11T17:48:39.702Z,8.38
2024-02-11T17:52:52.209Z,9.73
2024-02-11T17:57:04.914Z,6.80
2024-02-11T18:01:18.875Z,6.32
2024-02-11T18:05:31.716Z,6.15
2024-02-11T18:09:44.424Z,4.40
2024-02-11T18:13:57.190Z,4.13
2024-02-11T18:18:09.577Z,3.47
2024-02-11T18:22:22.143Z,3.17
2024-02-11T18:26:34.636Z,3.17
2024-02-11T18:30:47.259Z,2.92
2024-02-11T18:35:00.341Z,3.42
2024-02-11T18:39:16.045Z,2.47
2024-02-11T18:43:28.555Z,2.90
2024-02-11T18:47:41.080Z,3.03
2024-02-11T18:51:53.654Z,2.60
2024-02-11T18:56:08.250Z,2.45
2024-02-11T19:00:21.946Z,2.70
2024-02-11T19:04:34.710Z,2.50
2024-02-11T19:08:47.251Z,2.63
2024-02-11T19:12:59.578Z,3.15
2024-02-11T19:17:15.041Z,3.78
2024-02-11T19:21:27.612Z,2.08
2024-02-11T19:25:40.112Z,2.05
2024-02-11T19:29:52.379Z,2.28
2024-02-11T19:34:05.881Z,2.45
2024-02-11T19:38:20.735Z,2.78
2024-02-11T19:42:33.884Z,3.30
2024-02-11T19:46:46.346Z,3.08
2024-02-11T19:51:02.242Z,2.50
2024-02-11T19:55:15.175Z,2.35
2024-02-11T19:59:27.827Z,2.40
2024-02-11T20:03:41.124Z,2.70
2024-02-11T20:07:57.126Z,2.28
2024-02-11T20:12:10.411Z,2.92
2024-02-11T20:16:22.872Z,3.65
2024-02-11T20:20:36.623Z,3.70
2024-02-11T20:24:49.055Z,4.75
2024-02-11T20:29:01.546Z,3.80
2024-02-11T20:33:15.196Z,2.45
2024-02-11T20:37:27.672Z,2.75
2024-02-11T20:41:41.432Z,2.58
2024-02-11T20:45:54.193Z,2.85
2024-02-11T20:50:08.648Z,2.55
2024-02-11T20:54:21.209Z,2.85
2024-02-11T20:58:35.016Z,2.95
2024-02-11T21:02:47.691Z,3.08
2024-02-11T21:07:00.995Z,3.50
2024-02-11T21:11:13.733Z,2.80
2024-02-11T21:15:26.541Z,2.95
2024-02-11T21:19:38.903Z,3.80
2024-02-11T21:23:51.873Z,4.00
2024-02-11T21:28:04.418Z,3.47
2024-02-11T21:32:17.757Z,3.67
2024-02-11T21:36:30.260Z,4.00
2024-02-11T21:40:43.587Z,3.38
2024-02-11T21:44:55.996Z,4.22
2024-02-11T21:49:11.189Z,4.32
2024-02-11T21:53:23.665Z,3.47
2024-02-11T21:57:36.080Z,2.33
2024-02-11T22:01:49.695Z,2.65
2024-02-11T22:06:02.307Z,3.20
2024-02-11T22:10:14.804Z,2.67
2024-02-11T22:14:27.168Z,2.90
2024-02-11T22:18:39.588Z,3.65
2024-02-11T22:22:53.416Z,3.33
2024-02-11T22:27:07.418Z,3.83
2024-02-11T22:31:20.039Z,5.47
2024-02-11T22:35:33.987Z,5.25
2024-02-11T22:39:49.116Z,5.13
2024-02-11T22:44:03.464Z,4.65
2024-02-11T22:48:16.022Z,3.72
2024-02-11T22:52:29.600Z,4.03
2024-02-11T22:56:43.408Z,3.83
2024-02-11T23:00:56.495Z,3.80
2024-02-11T23:05:09.244Z,3.55
2024-02-11T23:09:24.166Z,2.80
2024-02-11T23:13:36.524Z,2.92
2024-02-11T23:17:50.546Z,3.92
2024-02-11T23:22:06.273Z,3.00
2024-02-11T23:26:18.909Z,2.95
2024-02-11T23:30:31.715Z,3.20
2024-02-11T23:34:44.078Z,3.33
2024-02-11T23:38:56.564Z,2.80
2024-02-11T23:43:10.335Z,3.03
2024-02-11T23:47:23.182Z,3.30
2024-02-11T23:51:35.822Z,3.33
2024-02-11T23:55:50.968Z,3.08
